createdAt,value
2019-01-27T00:01:20.471Z,99481.38
2019-01-27T00:03:52.584Z,99478.91
2019-01-27T00:06:25.865Z,99476.45
2019-01-27T00:09:05.875Z,99466.08
2019-01-27T00:11:39.505Z,99462.14
2019-01-27T00:14:18.113Z,99458.30
2019-01-27T00:16:50.194Z,99455.16
2019-01-27T00:19:30.160Z,99446.25
2019-01-27T00:22:10.513Z,99433.71
2019-01-27T00:24:44.143Z,99431.03
2019-01-27T00:27:16.215Z,99428.31
2019-01-27T00:29:48.280Z,99419.32
2019-01-27T00:32:20.244Z,99417.61
2019-01-27T00:34:52.235Z,99415.80
2019-01-27T00:37:24.341Z,99410.91
2019-01-27T00:39:56.387Z,99410.95
2019-01-27T00:42:28.445Z,99404.84
2019-01-27T00:45:00.457Z,99395.31
2019-01-27T00:47:32.707Z,99398.91
2019-01-27T00:50:05.362Z,99398.95
2019-01-27T00:52:37.448Z,99403.27
2019-01-27T00:55:12.831Z,99399.33
2019-01-27T00:57:45.031Z,99395.81
2019-01-27T01:00:19.790Z,99391.94
2019-01-27T01:02:51.955Z,99395.91
2019-01-27T01:05:24.078Z,99407.23
2019-01-27T01:07:56.196Z,99404.09
2019-01-27T01:10:28.337Z,99401.63
2019-01-27T01:13:00.360Z,99389.55
2019-01-27T01:15:32.461Z,99389.63
2019-01-27T01:18:04.991Z,99388.30
2019-01-27T01:20:36.953Z,99387.92
2019-01-27T01:23:09.509Z,99385.70
2019-01-27T01:25:41.496Z,99377.55
2019-01-27T01:28:13.610Z,99381.09
2019-01-27T01:30:45.644Z,99385.83
2019-01-27T01:33:17.751Z,99374.73
2019-01-27T01:35:52.814Z,99365.61
2019-01-27T01:38:24.989Z,99358.76
2019-01-27T01:40:56.995Z,99359.75
2019-01-27T01:43:29.028Z,99354.98
2019-01-27T01:46:01.079Z,99355.78
2019-01-27T01:48:33.159Z,99354.41
2019-01-27T01:51:05.175Z,99345.45
2019-01-27T01:53:37.301Z,99340.48
2019-01-27T01:56:09.622Z,99337.17
2019-01-27T01:58:41.648Z,99328.93
2019-01-27T02:01:13.800Z,99328.13
2019-01-27T02:03:46.164Z,99327.29
2019-01-27T02:06:20.854Z,99325.50
2019-01-27T02:08:52.997Z,99328.52
2019-01-27T02:11:25.112Z,99325.05
2019-01-27T02:13:57.288Z,99316.91
2019-01-27T02:16:29.310Z,99315.55
2019-01-27T02:19:01.398Z,99319.89
2019-01-27T02:21:34.669Z,99314.28
2019-01-27T02:24:07.166Z,99312.15
2019-01-27T02:26:39.314Z,99310.02
2019-01-27T02:29:12.895Z,99301.81
2019-01-27T02:31:44.874Z,99300.06
2019-01-27T02:34:16.896Z,99294.83
2019-01-27T02:36:48.937Z,99292.73
2019-01-27T02:39:21.275Z,99289.19
2019-01-27T02:41:54.467Z,99289.69
2019-01-27T02:44:26.476Z,99281.87
2019-01-27T02:46:58.435Z,99282.78
2019-01-27T02:49:30.646Z,99268.94
2019-01-27T02:52:04.668Z,99274.09
2019-01-27T02:54:39.150Z,99267.46
2019-01-27T02:57:11.366Z,99268.41
2019-01-27T02:59:43.965Z,99260.94
2019-01-27T03:02:16.031Z,99258.84
2019-01-27T03:04:48.069Z,99252.42
2019-01-27T03:07:39.476Z,99246.37
2019-01-27T03:10:13.715Z,99234.77
2019-01-27T03:12:45.959Z,99237.74
2019-01-27T03:15:18.874Z,99238.63
2019-01-27T03:17:52.663Z,99234.77
2019-01-27T03:20:24.680Z,99231.37
2019-01-27T03:22:56.663Z,99226.25
2019-01-27T03:25:28.730Z,99214.55
2019-01-27T03:28:00.720Z,99204.17
2019-01-27T03:30:32.896Z,99204.66
2019-01-27T03:33:04.864Z,99206.38
2019-01-27T03:35:38.506Z,99194.25
2019-01-27T03:38:10.479Z,99191.66
2019-01-27T03:40:42.555Z,99194.31
2019-01-27T03:43:14.547Z,99189.58
2019-01-27T03:45:46.658Z,99193.51
2019-01-27T03:48:18.637Z,99190.88
2019-01-27T03:50:50.671Z,99178.36
2019-01-27T03:53:22.717Z,99166.27
2019-01-27T03:55:54.712Z,99159.81
2019-01-27T03:58:28.719Z,99155.05
2019-01-27T04:01:00.760Z,99152.45
2019-01-27T04:03:32.784Z,99152.45
2019-01-27T04:06:04.816Z,99149.53
2019-01-27T04:08:36.938Z,99147.39
2019-01-27T04:11:09.011Z,99146.13
2019-01-27T04:13:42.048Z,99142.69
2019-01-27T04:16:14.032Z,99141.45
2019-01-27T04:18:46.014Z,99131.91
2019-01-27T04:21:17.994Z,99120.66
2019-01-27T04:23:50.027Z,99119.45
2019-01-27T04:26:22.049Z,99120.38
2019-01-27T04:28:54.643Z,99115.73
2019-01-27T04:31:27.721Z,99112.25
2019-01-27T04:34:00.760Z,99108.10
2019-01-27T04:36:32.764Z,99108.42
2019-01-27T04:39:09.191Z,99091.66
2019-01-27T04:41:41.240Z,99093.77
2019-01-27T04:44:13.259Z,99085.03
2019-01-27T04:46:45.220Z,99082.94
2019-01-27T04:49:17.249Z,99081.62
2019-01-27T04:51:50.275Z,99073.77
2019-01-27T04:54:22.332Z,99079.87
2019-01-27T04:56:54.295Z,99080.42
2019-01-27T04:59:26.600Z,99083.94
2019-01-27T05:01:58.602Z,99077.10
2019-01-27T05:04:38.650Z,99078.05
2019-01-27T05:07:10.722Z,99078.91
2019-01-27T05:09:42.779Z,99083.70
2019-01-27T05:12:14.954Z,99076.86
2019-01-27T05:14:46.969Z,99052.58
2019-01-27T05:17:18.993Z,99039.17
2019-01-27T05:19:50.968Z,99031.73
2019-01-27T05:22:23.107Z,99041.69
2019-01-27T05:24:55.152Z,99041.74
2019-01-27T05:27:27.165Z,99036.09
2019-01-27T05:29:59.169Z,99036.50
2019-01-27T05:32:31.200Z,99030.02
2019-01-27T05:35:03.202Z,99028.78
2019-01-27T05:37:35.287Z,99027.50
2019-01-27T05:40:08.650Z,99025.78
2019-01-27T05:42:40.780Z,99031.50
2019-01-27T05:45:14.279Z,99025.45
2019-01-27T05:47:46.278Z,99015.13
2019-01-27T05:50:18.413Z,99015.57
2019-01-27T05:52:51.771Z,99014.35
2019-01-27T05:55:27.320Z,99011.78
2019-01-27T05:57:59.347Z,99016.50
2019-01-27T06:00:34.770Z,99016.88
2019-01-27T06:03:06.744Z,99009.47
2019-01-27T06:05:38.836Z,99018.23
2019-01-27T06:08:12.908Z,99012.61
2019-01-27T06:10:44.941Z,99013.03
2019-01-27T06:13:17.033Z,99014.77
2019-01-27T06:15:49.063Z,99019.53
2019-01-27T06:18:21.229Z,99010.84
2019-01-27T06:20:53.248Z,99006.87
2019-01-27T06:23:25.273Z,99010.33
2019-01-27T06:25:57.253Z,99013.75
2019-01-27T06:28:29.253Z,99003.73
2019-01-27T06:31:01.208Z,99000.31
2019-01-27T06:33:40.931Z,99010.23
2019-01-27T06:36:12.920Z,99010.28
2019-01-27T06:38:44.949Z,99006.41
2019-01-27T06:41:17.105Z,98996.98
2019-01-27T06:43:49.158Z,98996.61
2019-01-27T06:46:21.319Z,98989.29
2019-01-27T06:48:53.762Z,98989.29
2019-01-27T06:51:25.793Z,98981.90
2019-01-27T06:53:57.873Z,98978.44
2019-01-27T06:56:32.541Z,98978.90
2019-01-27T06:59:12.366Z,98970.23
2019-01-27T07:01:52.118Z,98974.11
2019-01-27T07:04:36.339Z,98969.31
2019-01-27T07:07:17.776Z,98968.36
2019-01-27T07:10:04.540Z,98957.92
2019-01-27T07:12:47.492Z,98954.48
2019-01-27T07:15:41.327Z,98956.61
2019-01-27T07:18:47.386Z,98959.58
2019-01-27T07:21:33.611Z,98952.62
2019-01-27T07:24:39.940Z,98948.30
2019-01-27T07:27:48.151Z,98938.78
2019-01-27T07:30:39.084Z,98940.52
2019-01-27T07:33:28.683Z,98927.06
2019-01-27T07:36:18.673Z,98931.41
2019-01-27T07:39:18.719Z,98927.52
2019-01-27T07:42:06.140Z,98932.33
2019-01-27T07:44:56.000Z,98928.02
2019-01-27T07:47:46.480Z,98919.33
2019-01-27T07:50:36.712Z,98918.03
2019-01-27T07:53:33.540Z,98910.23
2019-01-27T07:56:23.810Z,98912.42
2019-01-27T07:59:04.625Z,98903.34
2019-01-27T08:02:11.016Z,98899.45
2019-01-27T08:05:02.928Z,98902.52
2019-01-27T08:07:54.253Z,98907.70
2019-01-27T08:10:37.991Z,98897.73
2019-01-27T08:13:41.169Z,98895.58
2019-01-27T08:16:32.073Z,98900.78
2019-01-27T08:19:32.003Z,98895.17
2019-01-27T08:22:14.047Z,98889.97
2019-01-27T08:25:07.943Z,98889.98
2019-01-27T08:28:06.592Z,98880.90
2019-01-27T08:30:56.168Z,98884.84
2019-01-27T08:34:05.599Z,98874.89
2019-01-27T08:36:56.824Z,98874.02
2019-01-27T08:39:50.767Z,98865.84
2019-01-27T08:42:44.893Z,98861.97
2019-01-27T08:45:50.841Z,98866.73
2019-01-27T08:48:22.970Z,98865.91
2019-01-27T08:50:55.117Z,98860.67
2019-01-27T08:53:27.022Z,98863.73
2019-01-27T08:55:59.081Z,98862.44
2019-01-27T08:58:31.195Z,98864.63
2019-01-27T09:01:17.911Z,98859.05
2019-01-27T09:03:59.292Z,98865.53
2019-01-27T09:06:56.477Z,98857.78
2019-01-27T09:09:50.849Z,98848.66
2019-01-27T09:12:41.834Z,98846.94
2019-01-27T09:15:51.019Z,98844.36
2019-01-27T09:18:42.033Z,98844.34
2019-01-27T09:21:36.044Z,98851.74
2019-01-27T09:24:25.943Z,98842.22
2019-01-27T09:27:11.992Z,98841.77
2019-01-27T09:30:05.953Z,98839.63
2019-01-27T09:33:08.565Z,98839.66
2019-01-27T09:35:52.986Z,98827.11
2019-01-27T09:38:45.051Z,98824.47
2019-01-27T09:41:39.173Z,98812.76
2019-01-27T09:44:39.301Z,98821.44
2019-01-27T09:47:27.369Z,98824.03
2019-01-27T09:50:30.826Z,98821.91
2019-01-27T09:53:24.697Z,98819.31
2019-01-27T09:56:16.956Z,98817.14
2019-01-27T09:58:55.946Z,98818.42
2019-01-27T10:01:53.360Z,98808.89
2019-01-27T10:04:36.118Z,98803.25
2019-01-27T10:07:25.622Z,98802.84
2019-01-27T10:10:22.701Z,98789.42
2019-01-27T10:13:21.133Z,98791.15
2019-01-27T10:16:01.422Z,98793.73
2019-01-27T10:18:55.225Z,98790.72
2019-01-27T10:21:45.191Z,98783.78
2019-01-27T10:24:41.458Z,98782.06
2019-01-27T10:27:44.191Z,98775.57
2019-01-27T10:30:40.189Z,98772.97
2019-01-27T10:33:40.393Z,98768.67
2019-01-27T10:36:40.735Z,98766.48
2019-01-27T10:39:32.545Z,98763.02
2019-01-27T10:42:22.718Z,98760.41
2019-01-27T10:45:03.863Z,98761.31
2019-01-27T10:47:55.209Z,98751.80
2019-01-27T10:50:41.470Z,98740.55
2019-01-27T10:53:50.733Z,98737.06
2019-01-27T10:56:28.550Z,98731.89
2019-01-27T10:59:25.672Z,98730.58
2019-01-27T11:02:20.928Z,98726.69
2019-01-27T11:05:19.118Z,98720.20
2019-01-27T11:08:07.556Z,98715.00
2019-01-27T11:10:57.357Z,98715.00
2019-01-27T11:13:47.485Z,98712.83
2019-01-27T11:16:43.278Z,98705.87
2019-01-27T11:19:27.987Z,98699.81
2019-01-27T11:22:15.226Z,98696.80
2019-01-27T11:25:01.124Z,98684.23
2019-01-27T11:28:08.713Z,98685.08
2019-01-27T11:30:48.332Z,98686.41
2019-01-27T11:33:45.623Z,98676.42
2019-01-27T11:36:30.002Z,98669.05
2019-01-27T11:39:40.194Z,98664.70
2019-01-27T11:42:28.456Z,98662.10
2019-01-27T11:45:07.173Z,98660.39
2019-01-27T11:48:04.265Z,98659.09
2019-01-27T11:50:46.921Z,98656.03
2019-01-27T11:53:19.030Z,98652.13
2019-01-27T11:55:51.037Z,98651.25
2019-01-27T11:58:23.161Z,98647.36
2019-01-27T12:00:58.900Z,98650.83
2019-01-27T12:03:30.984Z,98636.52
2019-01-27T12:06:05.585Z,98640.44
2019-01-27T12:08:39.989Z,98633.05
2019-01-27T12:11:12.450Z,98633.92
2019-01-27T12:13:44.697Z,98626.53
2019-01-27T12:16:17.945Z,98631.30
2019-01-27T12:18:50.302Z,98628.27
2019-01-27T12:21:22.609Z,98620.92
2019-01-27T12:23:55.145Z,98621.77
2019-01-27T12:26:27.118Z,98624.37
2019-01-27T12:29:00.807Z,98636.52
2019-01-27T12:31:32.859Z,98632.19
2019-01-27T12:34:07.169Z,98624.38
2019-01-27T12:36:39.549Z,98623.50
2019-01-27T12:39:11.807Z,98623.48
2019-01-27T12:41:44.819Z,98618.29
2019-01-27T12:44:17.260Z,98607.02
2019-01-27T12:46:49.308Z,98603.08
2019-01-27T12:49:21.496Z,98603.96
2019-01-27T12:51:54.194Z,98605.23
2019-01-27T12:54:26.371Z,98605.70
2019-01-27T12:56:58.506Z,98606.53
2019-01-27T12:59:31.732Z,98606.53
2019-01-27T13:02:05.487Z,98595.70
2019-01-27T13:04:37.682Z,98606.13
2019-01-27T13:07:10.177Z,98600.47
2019-01-27T13:09:42.378Z,98595.28
2019-01-27T13:12:14.509Z,98584.44
2019-01-27T13:14:46.648Z,98587.03
2019-01-27T13:17:19.000Z,98584.88
2019-01-27T13:19:53.904Z,98590.48
2019-01-27T13:22:25.269Z,98586.59
2019-01-27T13:24:58.042Z,98583.53
2019-01-27T13:27:40.284Z,98578.73
2019-01-27T13:30:19.799Z,98569.19
2019-01-27T13:32:52.318Z,98563.11
2019-01-27T13:35:25.565Z,98560.48
2019-01-27T13:37:57.675Z,98555.72
2019-01-27T13:40:29.859Z,98544.87
2019-01-27T13:43:07.539Z,98546.61
2019-01-27T13:45:39.995Z,98540.94
2019-01-27T13:48:12.133Z,98542.70
2019-01-27T13:50:44.279Z,98543.13
2019-01-27T13:53:16.419Z,98546.14
2019-01-27T13:55:48.702Z,98540.94
2019-01-27T13:58:20.724Z,98538.30
2019-01-27T14:00:52.714Z,98537.90
2019-01-27T14:03:28.139Z,98541.37
2019-01-27T14:06:00.187Z,98534.83
2019-01-27T14:08:32.321Z,98537.84
2019-01-27T14:11:07.178Z,98540.41
2019-01-27T14:13:41.965Z,98540.38
2019-01-27T14:16:14.163Z,98539.94
2019-01-27T14:18:46.756Z,98534.73
2019-01-27T14:21:19.128Z,98537.73
2019-01-27T14:23:51.703Z,98535.56
2019-01-27T14:26:24.000Z,98537.34
2019-01-27T14:28:56.140Z,98533.46
2019-01-27T14:31:28.425Z,98538.17
2019-01-27T14:34:00.651Z,98530.82
2019-01-27T14:36:32.845Z,98530.39
2019-01-27T14:39:08.040Z,98529.98
2019-01-27T14:41:40.405Z,98525.65
2019-01-27T14:44:12.701Z,98530.45
2019-01-27T14:46:45.326Z,98526.55
2019-01-27T14:49:18.340Z,98530.45
2019-01-27T14:51:51.063Z,98529.59
2019-01-27T14:54:23.458Z,98522.64
2019-01-27T14:56:55.662Z,98518.30
2019-01-27T14:59:27.836Z,98519.63
2019-01-27T15:01:59.989Z,98521.38
2019-01-27T15:04:56.845Z,98511.82
2019-01-27T15:11:45.849Z,98506.17
2019-01-27T15:14:18.266Z,98496.20
2019-01-27T15:16:50.490Z,98495.36
2019-01-27T15:19:22.669Z,98495.36
2019-01-27T15:21:54.834Z,98502.77
2019-01-27T15:25:17.626Z,98503.20
2019-01-27T15:27:57.930Z,98508.84
2019-01-27T15:30:31.698Z,98512.31
2019-01-27T15:33:05.910Z,98506.67
2019-01-27T15:35:41.778Z,98505.80
2019-01-27T15:38:15.952Z,98509.71
2019-01-27T15:40:53.955Z,98501.03
2019-01-27T15:43:26.285Z,98510.98
2019-01-27T15:45:58.422Z,98505.34
2019-01-27T15:48:30.574Z,98514.02
2019-01-27T15:51:02.675Z,98509.66
2019-01-27T15:53:35.099Z,98504.01
2019-01-27T15:56:07.373Z,98504.01
2019-01-27T15:58:39.462Z,98502.23
2019-01-27T16:01:11.987Z,98507.02
2019-01-27T16:03:44.330Z,98504.84
2019-01-27T16:06:16.413Z,98507.02
2019-01-27T16:08:48.632Z,98509.19
2019-01-27T16:11:21.180Z,98510.92
2019-01-27T16:13:53.506Z,98509.19
2019-01-27T16:16:25.672Z,98504.84
2019-01-27T16:18:58.974Z,98507.45
2019-01-27T16:21:31.328Z,98504.44
2019-01-27T16:24:06.578Z,98500.97
2019-01-27T16:26:38.813Z,98502.70
2019-01-27T16:29:10.933Z,98497.06
2019-01-27T16:32:01.274Z,98496.62
2019-01-27T16:34:39.970Z,98496.62
2019-01-27T16:37:26.170Z,98494.48
2019-01-27T16:39:58.419Z,98497.97
2019-01-27T16:42:33.046Z,98487.98
2019-01-27T16:45:06.698Z,98486.28
2019-01-27T16:47:39.192Z,98491.05
2019-01-27T16:50:13.972Z,98480.20
2019-01-27T16:52:48.318Z,98476.30
2019-01-27T16:55:20.961Z,98471.95
2019-01-27T16:57:53.091Z,98474.16
2019-01-27T17:00:27.215Z,98476.76
2019-01-27T17:02:59.461Z,98475.05
2019-01-27T17:05:40.755Z,98478.09
2019-01-27T17:08:13.101Z,98478.96
2019-01-27T17:10:45.368Z,98477.66
2019-01-27T17:13:17.436Z,98467.68
2019-01-27T17:15:49.718Z,98470.28
2019-01-27T17:18:21.983Z,98470.28
2019-01-27T17:20:54.277Z,98472.42
2019-01-27T17:23:26.652Z,98470.25
2019-01-27T17:25:58.866Z,98467.21
2019-01-27T17:28:30.995Z,98473.29
2019-01-27T17:31:03.112Z,98481.97
2019-01-27T17:33:35.297Z,98472.42
2019-01-27T17:39:14.096Z,98471.98
2019-01-27T17:41:46.363Z,98475.45
2019-01-27T17:44:18.767Z,98472.86
2019-01-27T17:46:51.071Z,98478.50
2019-01-27T17:49:26.103Z,98472.86
2019-01-27T17:52:01.463Z,98468.95
2019-01-27T17:54:35.539Z,98467.65
2019-01-27T17:57:20.378Z,98462.01
2019-01-27T18:00:18.998Z,98469.39
2019-01-27T18:03:10.243Z,98466.78
2019-01-27T18:06:01.447Z,98466.78
2019-01-27T18:09:32.262Z,98452.06
2019-01-27T18:16:09.530Z,98464.67
2019-01-27T18:18:42.258Z,98469.41
2019-01-27T18:21:14.852Z,98473.32
2019-01-27T18:23:48.744Z,98478.09
2019-01-27T18:26:21.337Z,98470.69
2019-01-27T18:28:55.417Z,98468.08
2019-01-27T18:31:30.220Z,98474.56
2019-01-27T18:34:18.854Z,98473.69
2019-01-27T18:36:58.525Z,98471.52
2019-01-27T18:40:00.796Z,98469.78
2019-01-27T18:43:29.874Z,98462.84
2019-01-27T18:48:10.486Z,98460.23
2019-01-27T18:58:15.164Z,98457.63
2019-01-27T19:01:32.078Z,98457.23
2019-01-27T19:05:09.157Z,98458.07
2019-01-27T19:11:49.439Z,98455.94
2019-01-27T19:14:37.758Z,98465.91
2019-01-27T19:17:42.450Z,98462.88
2019-01-27T19:21:01.663Z,98469.81
2019-01-27T19:24:03.388Z,98458.50
2019-01-27T19:26:58.365Z,98455.06
2019-01-27T19:29:58.661Z,98464.17
2019-01-27T19:32:51.175Z,98450.29
2019-01-27T19:40:47.190Z,98463.31
2019-01-27T19:44:32.102Z,98462.47
2019-01-27T19:47:38.183Z,98462.47
2019-01-27T19:50:38.858Z,98470.28
2019-01-27T19:53:28.699Z,98468.98
2019-01-27T19:56:26.060Z,98467.65
2019-01-27T20:02:40.439Z,98465.52
2019-01-27T20:05:28.867Z,98460.73
2019-01-27T20:08:16.826Z,98467.68
2019-01-27T20:11:01.367Z,98465.94
2019-01-27T20:17:40.234Z,98468.55
2019-01-27T20:35:19.825Z,98483.70
2019-01-27T20:38:08.318Z,98480.27
2019-01-27T20:40:56.545Z,98480.27
2019-01-27T20:43:53.716Z,98476.36
2019-01-27T20:51:08.016Z,98480.23
2019-01-27T20:57:46.740Z,98473.29
2019-01-27T21:00:40.845Z,98474.16
2019-01-27T21:03:32.128Z,98473.25
2019-01-27T21:06:23.108Z,98475.46
2019-01-27T21:13:29.117Z,98476.77
2019-01-27T21:16:36.496Z,98469.81
2019-01-27T21:19:45.478Z,98470.69
2019-01-27T21:22:18.018Z,98475.89
2019-01-27T21:24:50.350Z,98468.52
2019-01-27T21:27:22.742Z,98471.12
2019-01-27T21:29:56.155Z,98468.95
2019-01-27T21:32:37.223Z,98469.78
2019-01-27T21:35:10.991Z,98473.72
2019-01-27T21:37:43.061Z,98481.53
2019-01-27T21:40:17.991Z,98476.33
2019-01-27T21:42:49.989Z,98483.27
2019-01-27T21:45:26.401Z,98486.77
2019-01-27T21:47:58.732Z,98486.77
2019-01-27T21:50:36.089Z,98494.58
2019-01-27T21:53:10.462Z,98487.20
2019-01-27T21:55:42.649Z,98497.62
2019-01-27T21:58:14.672Z,98488.53
2019-01-27T22:00:46.779Z,98491.55
2019-01-27T22:03:18.932Z,98495.48
2019-01-27T22:05:51.661Z,98489.84
2019-01-27T22:08:23.693Z,98490.27
2019-01-27T22:10:55.900Z,98487.23
2019-01-27T22:13:29.712Z,98486.77
2019-01-27T22:16:02.544Z,98493.30
2019-01-27T22:18:34.645Z,98492.47
2019-01-27T22:21:06.874Z,98486.82
2019-01-27T22:23:38.864Z,98494.69
2019-01-27T22:26:11.131Z,98494.25
2019-01-27T22:28:43.277Z,98492.94
2019-01-27T22:31:15.327Z,98487.32
2019-01-27T22:33:47.329Z,98494.29
2019-01-27T22:36:19.490Z,98493.84
2019-01-27T22:38:53.617Z,98491.70
2019-01-27T22:41:25.609Z,98488.69
2019-01-27T22:43:59.196Z,98486.52
2019-01-27T22:46:31.181Z,98494.31
2019-01-27T22:49:03.657Z,98491.73
2019-01-27T22:51:35.704Z,98488.70
2019-01-27T22:54:07.654Z,98486.09
2019-01-27T22:56:39.735Z,98495.62
2019-01-27T22:59:13.324Z,98496.50
2019-01-27T23:01:45.430Z,98500.86
2019-01-27T23:04:17.459Z,98502.16
2019-01-27T23:06:49.542Z,98509.09
2019-01-27T23:09:22.382Z,98508.22
2019-01-27T23:11:54.403Z,98498.69
2019-01-27T23:14:26.404Z,98499.11
2019-01-27T23:16:58.481Z,98505.61
2019-01-27T23:19:30.464Z,98498.27
2019-01-27T23:22:02.536Z,98504.31
2019-01-27T23:24:34.499Z,98504.32
2019-01-27T23:27:08.713Z,98500.45
2019-01-27T23:29:40.837Z,98496.52
2019-01-27T23:32:12.898Z,98497.39
2019-01-27T23:34:44.942Z,98495.67
2019-01-27T23:37:16.991Z,98497.42
2019-01-27T23:39:48.981Z,98496.10
2019-01-27T23:42:21.003Z,98496.12
2019-01-27T23:44:53.011Z,98498.72
2019-01-27T23:47:24.976Z,98488.74
2019-01-27T23:49:58.199Z,98493.95
2019-01-27T23:52:30.527Z,98496.55
2019-01-27T23:55:02.525Z,98496.56
2019-01-27T23:57:34.628Z,98497.87
